Terminal Aerodrome Forecast
Issued by NWS Tuscon, AZ

Home | Current Version | Previous Version | Text Only | Print | Product List | Glossary On
Versions: 1 2 3 4 5 6 7 8 9 10 11 12 13
981
FTUS45 KTWC 141129
TAFDUG
TAF
KDUG 141129Z 1412/1512 VRB04KT P6SM BKN250
     FM141900 33010KT P6SM SCT250
     FM150100 36008KT P6SM FEW250
     FM150800 VRB04KT P6SM SCT250=

USA.gov is the U.S. government's official web portal to all federal, state and local government web resources and services.